地図

経路データ

SID SEASON NUMBER BASIN SUBBASIN NAME ISO_TIME NATURE LAT LON WMO_WIND WMO_PRES WMO_AGENCY TRACK_TYPE DIST2LAND LANDFALL IFLAG USA_AGENCY USA_ATCF_ID USA_LAT USA_LON USA_RECORD USA_STATUS USA_WIND USA_PRES USA_SSHS USA_R34_NE USA_R34_SE USA_R34_SW USA_R34_NW USA_R50_NE USA_R50_SE USA_R50_SW USA_R50_NW USA_R64_NE USA_R64_SE USA_R64_SW USA_R64_NW USA_POCI USA_ROCI USA_RMW USA_EYE TOKYO_LAT TOKYO_LON TOKYO_GRADE TOKYO_WIND TOKYO_PRES TOKYO_R50_DIR TOKYO_R50_LONG TOKYO_R50_SHORT TOKYO_R30_DIR TOKYO_R30_LONG TOKYO_R30_SHORT TOKYO_LAND CMA_LAT CMA_LON CMA_CAT CMA_WIND CMA_PRES HKO_LAT HKO_LON HKO_CAT HKO_WIND HKO_PRES NEWDELHI_LAT NEWDELHI_LON NEWDELHI_GRADE NEWDELHI_WIND NEWDELHI_PRES NEWDELHI_CI NEWDELHI_DP NEWDELHI_POCI REUNION_LAT REUNION_LON REUNION_TYPE REUNION_WIND REUNION_PRES REUNION_TNUM REUNION_CI REUNION_RMW REUNION_R34_NE REUNION_R34_SE REUNION_R34_SW REUNION_R34_NW REUNION_R50_NE REUNION_R50_SE REUNION_R50_SW REUNION_R50_NW REUNION_R64_NE REUNION_R64_SE REUNION_R64_SW REUNION_R64_NW BOM_LAT BOM_LON BOM_TYPE BOM_WIND BOM_PRES BOM_TNUM BOM_CI BOM_RMW BOM_R34_NE BOM_R34_SE BOM_R34_SW BOM_R34_NW BOM_R50_NE BOM_R50_SE BOM_R50_SW BOM_R50_NW BOM_R64_NE BOM_R64_SE BOM_R64_SW BOM_R64_NW BOM_ROCI BOM_POCI BOM_EYE BOM_POS_METHOD BOM_PRES_METHOD NADI_LAT NADI_LON NADI_CAT NADI_WIND NADI_PRES WELLINGTON_LAT WELLINGTON_LON WELLINGTON_WIND WELLINGTON_PRES DS824_LAT DS824_LON DS824_STAGE DS824_WIND DS824_PRES TD9636_LAT TD9636_LON TD9636_STAGE TD9636_WIND TD9636_PRES TD9635_LAT TD9635_LON TD9635_WIND TD9635_PRES TD9635_ROCI NEUMANN_LAT NEUMANN_LON NEUMANN_CLASS NEUMANN_WIND NEUMANN_PRES MLC_LAT MLC_LON MLC_CLASS MLC_WIND MLC_PRES USA_GUST BOM_GUST BOM_GUST_PER REUNION_GUST REUNION_GUST_PER USA_SEAHGT USA_SEARAD_NE USA_SEARAD_SE USA_SEARAD_SW USA_SEARAD_NW STORM_SPEED STORM_DIR
1994268N15232 1994 92 EP MM PAUL 1994-09-24 12:00:00 TS 15.2000 -128.300 25 1009 hurdat_epa main 1958 1958 O_____________ hurdat_epa EP181994 15.2000 -128.300 TD 25 1009 -1 5 223
1994268N15232 1994 92 EP MM PAUL 1994-09-24 15:00:00 TS 15.0325 -128.465 main 1989 1989 P_____________ EP181994 15.0325 -128.465 TD 25 1008 -1 4 224
1994268N15232 1994 92 EP MM PAUL 1994-09-24 18:00:00 TS 14.9000 -128.600 25 1008 hurdat_epa main 2004 2004 O_____________ hurdat_epa EP181994 14.9000 -128.600 TD 25 1008 -1 3 227
1994268N15232 1994 92 EP MM PAUL 1994-09-24 21:00:00 TS 14.8275 -128.692 main 2020 2020 P_____________ EP181994 14.8275 -128.692 TD 27 1007 -1 2 243
1994268N15232 1994 92 EP MM PAUL 1994-09-25 00:00:00 TS 14.8000 -128.800 30 1007 hurdat_epa main 2027 2027 O_____________ hurdat_epa EP181994 14.8000 -128.800 TD 30 1007 -1 3 264
1994268N15232 1994 92 EP MM PAUL 1994-09-25 03:00:00 TS 14.8000 -128.985 main 2042 2042 P_____________ EP181994 14.8000 -128.985 TD 30 1007 -1 4 270
1994268N15232 1994 92 EP MM PAUL 1994-09-25 06:00:00 TS 14.8000 -129.200 30 1007 hurdat_epa main 2056 2056 O_____________ hurdat_epa EP181994 14.8000 -129.200 TD 30 1007 -1 4 267
1994268N15232 1994 92 EP MM PAUL 1994-09-25 09:00:00 TS 14.7800 -129.407 main 2071 2071 P_____________ EP181994 14.7800 -129.407 TD 30 1006 -1 4 256
1994268N15232 1994 92 EP MM PAUL 1994-09-25 12:00:00 TS 14.7000 -129.600 30 1006 hurdat_epa main 2094 2094 O_____________ hurdat_epa EP181994 14.7000 -129.600 TD 30 1006 -1 5 234
1994268N15232 1994 92 EP MM PAUL 1994-09-25 15:00:00 TS 14.5000 -129.803 main 2125 2125 P_____________ EP181994 14.5000 -129.803 TD 32 1006 -1 5 216
1994268N15232 1994 92 EP MM PAUL 1994-09-25 18:00:00 TS 14.3000 -129.900 35 1006 hurdat_epa main 2149 2149 O_____________ hurdat_epa EP181994 14.3000 -129.900 TS 35 1006 0 3 0
1994268N15232 1994 92 EP MM PAUL 1994-09-25 21:00:00 TS 14.1975 -129.780 main 2149 2135 P_____________ EP181994 14.1975 -129.780 TS 35 1005 0 3 109
1994268N15232 1994 92 EP MM PAUL 1994-09-26 00:00:00 TS 14.2000 -129.600 35 1005 hurdat_epa main 2135 2127 O_____________ hurdat_epa EP181994 14.2000 -129.600 TS 35 1005 0 2 63
1994268N15232 1994 92 EP MM PAUL 1994-09-26 03:00:00 TS 14.3050 -129.557 main 2127 2103 P_____________ EP181994 14.3050 -129.557 TS 35 1005 0 3 17
1994268N15232 1994 92 EP MM PAUL 1994-09-26 06:00:00 TS 14.5000 -129.500 35 1005 hurdat_epa main 2103 2072 O_____________ hurdat_epa EP181994 14.5000 -129.500 TS 35 1005 0 5 27
1994268N15232 1994 92 EP MM PAUL 1994-09-26 09:00:00 TS 14.7500 -129.323 main 2064 2033 P_____________ EP181994 14.7500 -129.323 TS 35 1005 0 6 38
1994268N15232 1994 92 EP MM PAUL 1994-09-26 12:00:00 TS 15.0000 -129.100 35 1005 hurdat_epa main 2033 2002 O_____________ hurdat_epa EP181994 15.0000 -129.100 TS 35 1005 0 6 44
1994268N15232 1994 92 EP MM PAUL 1994-09-26 15:00:00 TS 15.1650 -128.900 main 2002 1979 P_____________ EP181994 15.1650 -128.900 TS 35 1005 0 5 52
1994268N15232 1994 92 EP MM PAUL 1994-09-26 18:00:00 TS 15.3000 -128.700 35 1005 hurdat_epa main 1979 1956 O_____________ hurdat_epa EP181994 15.3000 -128.700 TS 35 1005 0 5 52
1994268N15232 1994 92 EP MM PAUL 1994-09-26 21:00:00 TS 15.4575 -128.507 main 1948 1925 P_____________ EP181994 15.4575 -128.507 TS 37 1004 0 5 52
1994268N15232 1994 92 EP MM PAUL 1994-09-27 00:00:00 TS 15.6000 -128.300 40 1003 hurdat_epa main 1925 1902 O_____________ hurdat_epa EP181994 15.6000 -128.300 TS 40 1003 0 5 59
1994268N15232 1994 92 EP MM PAUL 1994-09-27 03:00:00 TS 15.7150 -128.057 main 1902 1872 P_____________ EP181994 15.7150 -128.057 TS 40 1003 0 5 67
1994268N15232 1994 92 EP MM PAUL 1994-09-27 06:00:00 TS 15.8000 -127.800 40 1003 hurdat_epa main 1872 1849 O_____________ hurdat_epa EP181994 15.8000 -127.800 TS 40 1003 0 5 72
1994268N15232 1994 92 EP MM PAUL 1994-09-27 09:00:00 TS 15.8649 -127.572 main 1849 1828 P_____________ EP181994 15.8649 -127.572 TS 40 1003 0 5 78
1994268N15232 1994 92 EP MM PAUL 1994-09-27 12:00:00 TS 15.9000 -127.300 40 1004 hurdat_epa main 1828 1807 O_____________ hurdat_epa EP181994 15.9000 -127.300 TS 40 1004 0 6 86
1994268N15232 1994 92 EP MM PAUL 1994-09-27 15:00:00 TS 15.9075 -126.930 main 1800 1772 P_____________ EP181994 15.9075 -126.930 TS 37 1004 0 8 90
1994268N15232 1994 92 EP MM PAUL 1994-09-27 18:00:00 TS 15.9000 -126.500 35 1005 hurdat_epa main 1772 1745 O_____________ hurdat_epa EP181994 15.9000 -126.500 TS 35 1005 0 9 89
1994268N15232 1994 92 EP MM PAUL 1994-09-27 21:00:00 TS 15.9225 -126.043 main 1738 1711 P_____________ EP181994 15.9225 -126.043 TS 32 1006 -1 9 90
1994268N15232 1994 92 EP MM PAUL 1994-09-28 00:00:00 TS 15.9000 -125.600 30 1007 hurdat_epa main 1711 1686 O_____________ hurdat_epa EP181994 15.9000 -125.600 TD 30 1007 -1 8 101
1994268N15232 1994 92 EP MM PAUL 1994-09-28 03:00:00 TS 15.7724 -125.227 main 1686 1675 P_____________ EP181994 15.7724 -125.227 TD 30 1007 -1 7 114
1994268N15232 1994 92 EP MM PAUL 1994-09-28 06:00:00 TS 15.6000 -124.900 30 1008 hurdat_epa main 1675 1658 O_____________ hurdat_epa EP181994 15.6000 -124.900 TD 30 1008 -1 7 118
1994268N15232 1994 92 EP MM PAUL 1994-09-28 09:00:00 TS 15.4499 -124.593 main 1665 1649 P_____________ EP181994 15.4499 -124.593 TD 30 1008 -1 7 117
1994268N15232 1994 92 EP MM PAUL 1994-09-28 12:00:00 TS 15.3000 -124.300 30 1008 hurdat_epa main 1649 1633 O_____________ hurdat_epa EP181994 15.3000 -124.300 TD 30 1008 -1 7 119
1994268N15232 1994 92 EP MM PAUL 1994-09-28 15:00:00 TS 15.1350 -123.992 main 1640 1625 P_____________ EP181994 15.1350 -123.992 TD 27 1008 -1 7 117
1994268N15232 1994 92 EP MM PAUL 1994-09-28 18:00:00 TS 15.0000 -123.700 25 1008 hurdat_epa main 1625 1609 O_____________ hurdat_epa EP181994 15.0000 -123.700 TD 25 1008 -1 6 109
1994268N15232 1994 92 EP MM PAUL 1994-09-28 21:00:00 TS 14.9425 -123.428 main 1610 1595 P_____________ EP181994 14.9425 -123.428 TD 25 1008 -1 5 102
1994268N15232 1994 92 EP MM PAUL 1994-09-29 00:00:00 TS 14.9000 -123.200 25 1009 hurdat_epa main 1595 1587 O_____________ hurdat_epa EP181994 14.9000 -123.200 TD 25 1009 -1 4 110
1994268N15232 1994 92 EP MM PAUL 1994-09-29 03:00:00 TS 14.8000 -123.027 main 1588 1588 P_____________ EP181994 14.8000 -123.027 TD 25 1009 -1 4 124
1994268N15232 1994 92 EP MM PAUL 1994-09-29 06:00:00 TS 14.7000 -122.900 25 1009 hurdat_epa main 1588 1581 O_____________ hurdat_epa EP181994 14.7000 -122.900 TD 25 1009 -1 3 125
1994268N15232 1994 92 EP MM PAUL 1994-09-29 09:00:00 TS 14.6425 -122.793 main 1589 1582 P_____________ EP181994 14.6425 -122.793 TD 25 1009 -1 2 117
1994268N15232 1994 92 EP MM PAUL 1994-09-29 12:00:00 TS 14.6000 -122.700 25 1009 hurdat_epa main 1582 1574 O_____________ hurdat_epa EP181994 14.6000 -122.700 TD 25 1009 -1 2 119
1994268N15232 1994 92 EP MM PAUL 1994-09-29 15:00:00 TS 14.5350 -122.592 main 1583 1575 P_____________ EP181994 14.5350 -122.592 TD 25 1009 -1 2 117
1994268N15232 1994 92 EP MM PAUL 1994-09-29 18:00:00 TS 14.5000 -122.500 25 1010 hurdat_epa main 1575 1568 O_____________ hurdat_epa EP181994 14.5000 -122.500 TD 25 1010 -1 1 92
1994268N15232 1994 92 EP MM PAUL 1994-09-29 21:00:00 TS 14.5300 -122.440 main 1568 1560 P_____________ EP181994 14.5300 -122.440 TD 22 1010 -1 1 43
1994268N15232 1994 92 EP MM PAUL 1994-09-30 00:00:00 TS 14.6000 -122.400 20 1011 hurdat_epa main 1560 O_____________ hurdat_epa EP181994 14.6000 -122.400 TD 20 1011 -1 2 28

IBTrACS Databaseについて

本データベースは、米国NOAAが公開する1842年以降の世界の熱帯低気圧のベストトラックデータアーカイブInternational Best Track Archive for Climate Stewardship (IBTrACS)を、ウェブで閲覧しやすい形式に変換したものです。

最終更新日:2021-10-08